sensor_id;sensor_type;location;lat;lon;timestamp;P1;durP1;ratioP1;P2;durP2;ratioP2
26478;SDS011;14163;-26.142;27.992;2024-01-07T00:00:32;7.23;;;6.20;;
26478;SDS011;14163;-26.142;27.992;2024-01-07T00:03:01;19.67;;;15.43;;
26478;SDS011;14163;-26.142;27.992;2024-01-07T00:05:31;55.13;;;42.50;;
26478;SDS011;14163;-26.142;27.992;2024-01-07T00:08:00;40.63;;;30.73;;
26478;SDS011;14163;-26.142;27.992;2024-01-07T00:10:29;158.07;;;127.73;;
26478;SDS011;14163;-26.142;27.992;2024-01-07T00:13:00;91.83;;;76.50;;
26478;SDS011;14163;-26.142;27.992;2024-01-07T00:15:29;26.37;;;21.77;;
26478;SDS011;14163;-26.142;27.992;2024-01-07T00:17:59;18.33;;;16.03;;
26478;SDS011;14163;-26.142;27.992;2024-01-07T00:20:28;18.67;;;16.67;;
26478;SDS011;14163;-26.142;27.992;2024-01-07T00:22:57;15.67;;;12.33;;
26478;SDS011;14163;-26.142;27.992;2024-01-07T00:25:26;24.23;;;19.50;;
26478;SDS011;14163;-26.142;27.992;2024-01-07T00:27:56;13.57;;;10.80;;
26478;SDS011;14163;-26.142;27.992;2024-01-07T00:30:26;18.60;;;14.77;;
26478;SDS011;14163;-26.142;27.992;2024-01-07T00:32:56;9.00;;;8.20;;
26478;SDS011;14163;-26.142;27.992;2024-01-07T00:35:25;7.90;;;7.20;;
26478;SDS011;14163;-26.142;27.992;2024-01-07T00:37:58;10.63;;;9.63;;
26478;SDS011;14163;-26.142;27.992;2024-01-07T00:40:34;12.77;;;8.53;;
26478;SDS011;14163;-26.142;27.992;2024-01-07T00:43:04;9.43;;;8.50;;
26478;SDS011;14163;-26.142;27.992;2024-01-07T00:45:35;8.67;;;7.83;;
26478;SDS011;14163;-26.142;27.992;2024-01-07T00:48:04;7.20;;;6.40;;
26478;SDS011;14163;-26.142;27.992;2024-01-07T00:50:34;8.40;;;7.50;;
26478;SDS011;14163;-26.142;27.992;2024-01-07T00:53:03;7.47;;;6.40;;
26478;SDS011;14163;-26.142;27.992;2024-01-07T00:55:33;8.53;;;7.40;;
26478;SDS011;14163;-26.142;27.992;2024-01-07T00:58:02;8.47;;;7.50;;
26478;SDS011;14163;-26.142;27.992;2024-01-07T01:00:32;6.30;;;5.70;;
26478;SDS011;14163;-26.142;27.992;2024-01-07T01:03:02;6.90;;;5.97;;
26478;SDS011;14163;-26.142;27.992;2024-01-07T01:05:34;11.23;;;7.73;;
26478;SDS011;14163;-26.142;27.992;2024-01-07T01:08:03;7.30;;;6.70;;
26478;SDS011;14163;-26.142;27.992;2024-01-07T01:10:33;8.40;;;7.50;;
26478;SDS011;14163;-26.142;27.992;2024-01-07T01:13:02;10.90;;;9.00;;
26478;SDS011;14163;-26.142;27.992;2024-01-07T01:15:31;13.20;;;10.60;;
26478;SDS011;14163;-26.142;27.992;2024-01-07T01:18:02;10.20;;;9.10;;
26478;SDS011;14163;-26.142;27.992;2024-01-07T01:20:32;14.80;;;11.70;;
26478;SDS011;14163;-26.142;27.992;2024-01-07T01:23:01;9.93;;;8.87;;
26478;SDS011;14163;-26.142;27.992;2024-01-07T01:25:30;13.67;;;10.80;;
26478;SDS011;14163;-26.142;27.992;2024-01-07T01:28:01;27.47;;;22.70;;
26478;SDS011;14163;-26.142;27.992;2024-01-07T01:30:31;87.20;;;65.27;;
26478;SDS011;14163;-26.142;27.992;2024-01-07T01:33:04;71.23;;;54.00;;
26478;SDS011;14163;-26.142;27.992;2024-01-07T01:35:33;43.67;;;34.83;;
26478;SDS011;14163;-26.142;27.992;2024-01-07T01:38:03;16.70;;;15.00;;
26478;SDS011;14163;-26.142;27.992;2024-01-07T01:40:32;17.13;;;15.43;;
26478;SDS011;14163;-26.142;27.992;2024-01-07T01:43:01;19.97;;;17.90;;
26478;SDS011;14163;-26.142;27.992;2024-01-07T01:45:30;15.20;;;13.67;;
26478;SDS011;14163;-26.142;27.992;2024-01-07T01:47:59;13.23;;;11.40;;
26478;SDS011;14163;-26.142;27.992;2024-01-07T01:50:30;13.47;;;12.07;;
26478;SDS011;14163;-26.142;27.992;2024-01-07T01:53:00;17.83;;;16.03;;
26478;SDS011;14163;-26.142;27.992;2024-01-07T01:55:29;11.73;;;10.53;;
26478;SDS011;14163;-26.142;27.992;2024-01-07T01:57:59;12.80;;;11.60;;
26478;SDS011;14163;-26.142;27.992;2024-01-07T02:00:31;19.67;;;17.20;;
26478;SDS011;14163;-26.142;27.992;2024-01-07T02:03:00;10.77;;;9.67;;
26478;SDS011;14163;-26.142;27.992;2024-01-07T02:05:31;15.13;;;13.57;;
26478;SDS011;14163;-26.142;27.992;2024-01-07T02:08:00;12.17;;;10.80;;
26478;SDS011;14163;-26.142;27.992;2024-01-07T02:10:29;12.70;;;11.53;;
26478;SDS011;14163;-26.142;27.992;2024-01-07T02:13:00;12.07;;;10.93;;
26478;SDS011;14163;-26.142;27.992;2024-01-07T02:15:29;14.67;;;13.17;;
26478;SDS011;14163;-26.142;27.992;2024-01-07T02:17:59;12.87;;;11.67;;
26478;SDS011;14163;-26.142;27.992;2024-01-07T02:20:28;10.97;;;9.87;;
26478;SDS011;14163;-26.142;27.992;2024-01-07T02:22:59;11.60;;;10.07;;
26478;SDS011;14163;-26.142;27.992;2024-01-07T02:25:34;12.40;;;10.97;;
26478;SDS011;14163;-26.142;27.992;2024-01-07T02:28:03;17.37;;;12.00;;
26478;SDS011;14163;-26.142;27.992;2024-01-07T02:30:33;12.00;;;10.80;;
26478;SDS011;14163;-26.142;27.992;2024-01-07T02:33:02;11.87;;;10.67;;
26478;SDS011;14163;-26.142;27.992;2024-01-07T02:35:31;12.77;;;11.47;;
26478;SDS011;14163;-26.142;27.992;2024-01-07T02:38:01;13.50;;;12.07;;
26478;SDS011;14163;-26.142;27.992;2024-01-07T02:40:31;12.50;;;11.30;;
26478;SDS011;14163;-26.142;27.992;2024-01-07T02:43:01;15.47;;;13.73;;
26478;SDS011;14163;-26.142;27.992;2024-01-07T02:45:30;13.00;;;11.80;;
26478;SDS011;14163;-26.142;27.992;2024-01-07T02:47:59;14.30;;;12.60;;
26478;SDS011;14163;-26.142;27.992;2024-01-07T02:50:28;13.67;;;12.47;;
26478;SDS011;14163;-26.142;27.992;2024-01-07T02:52:57;14.33;;;12.87;;
26478;SDS011;14163;-26.142;27.992;2024-01-07T02:55:26;15.37;;;13.87;;
26478;SDS011;14163;-26.142;27.992;2024-01-07T02:57:57;15.70;;;14.30;;
26478;SDS011;14163;-26.142;27.992;2024-01-07T03:00:26;16.67;;;14.90;;
26478;SDS011;14163;-26.142;27.992;2024-01-07T03:02:56;16.70;;;15.10;;
26478;SDS011;14163;-26.142;27.992;2024-01-07T03:05:25;17.57;;;15.67;;
26478;SDS011;14163;-26.142;27.992;2024-01-07T03:07:58;19.93;;;17.03;;
26478;SDS011;14163;-26.142;27.992;2024-01-07T03:10:27;18.87;;;17.07;;
26478;SDS011;14163;-26.142;27.992;2024-01-07T03:12:58;19.57;;;17.77;;
26478;SDS011;14163;-26.142;27.992;2024-01-07T03:15:28;19.30;;;17.50;;
26478;SDS011;14163;-26.142;27.992;2024-01-07T03:17:57;19.73;;;17.83;;
26478;SDS011;14163;-26.142;27.992;2024-01-07T03:20:26;19.77;;;17.63;;
26478;SDS011;14163;-26.142;27.992;2024-01-07T03:22:55;19.20;;;17.13;;
26478;SDS011;14163;-26.142;27.992;2024-01-07T03:25:24;20.20;;;17.87;;
26478;SDS011;14163;-26.142;27.992;2024-01-07T03:27:54;19.33;;;17.20;;
26478;SDS011;14163;-26.142;27.992;2024-01-07T03:30:24;21.40;;;16.43;;
26478;SDS011;14163;-26.142;27.992;2024-01-07T03:32:53;17.40;;;15.60;;
26478;SDS011;14163;-26.142;27.992;2024-01-07T03:35:22;16.50;;;14.90;;
26478;SDS011;14163;-26.142;27.992;2024-01-07T03:37:52;17.17;;;15.57;;
26478;SDS011;14163;-26.142;27.992;2024-01-07T03:40:21;14.83;;;13.53;;
26478;SDS011;14163;-26.142;27.992;2024-01-07T03:42:50;13.53;;;12.13;;
26478;SDS011;14163;-26.142;27.992;2024-01-07T03:45:19;13.17;;;12.07;;
26478;SDS011;14163;-26.142;27.992;2024-01-07T03:47:50;9.70;;;8.90;;
26478;SDS011;14163;-26.142;27.992;2024-01-07T03:50:19;12.00;;;10.80;;
26478;SDS011;14163;-26.142;27.992;2024-01-07T03:52:48;13.07;;;12.07;;
26478;SDS011;14163;-26.142;27.992;2024-01-07T03:55:17;11.87;;;10.83;;
26478;SDS011;14163;-26.142;27.992;2024-01-07T03:57:46;11.57;;;10.37;;
26478;SDS011;14163;-26.142;27.992;2024-01-07T04:00:15;12.20;;;11.00;;
26478;SDS011;14163;-26.142;27.992;2024-01-07T04:02:45;11.40;;;10.30;;
26478;SDS011;14163;-26.142;27.992;2024-01-07T04:05:16;11.43;;;10.43;;
26478;SDS011;14163;-26.142;27.992;2024-01-07T04:07:45;12.77;;;11.70;;
26478;SDS011;14163;-26.142;27.992;2024-01-07T04:10:15;13.93;;;12.63;;
26478;SDS011;14163;-26.142;27.992;2024-01-07T04:12:45;13.70;;;12.40;;
26478;SDS011;14163;-26.142;27.992;2024-01-07T04:15:14;13.77;;;12.57;;
26478;SDS011;14163;-26.142;27.992;2024-01-07T04:17:43;13.20;;;12.10;;
26478;SDS011;14163;-26.142;27.992;2024-01-07T04:20:12;14.27;;;13.03;;
26478;SDS011;14163;-26.142;27.992;2024-01-07T04:22:44;12.57;;;11.47;;
26478;SDS011;14163;-26.142;27.992;2024-01-07T04:25:13;12.40;;;11.23;;
26478;SDS011;14163;-26.142;27.992;2024-01-07T04:27:42;13.13;;;11.13;;
26478;SDS011;14163;-26.142;27.992;2024-01-07T04:30:11;12.30;;;11.20;;
26478;SDS011;14163;-26.142;27.992;2024-01-07T04:32:40;11.07;;;10.07;;
26478;SDS011;14163;-26.142;27.992;2024-01-07T04:35:10;11.80;;;10.60;;
26478;SDS011;14163;-26.142;27.992;2024-01-07T04:37:41;11.47;;;10.37;;
26478;SDS011;14163;-26.142;27.992;2024-01-07T04:40:11;11.30;;;10.30;;
26478;SDS011;14163;-26.142;27.992;2024-01-07T04:42:43;10.50;;;9.50;;
26478;SDS011;14163;-26.142;27.992;2024-01-07T04:45:12;10.00;;;9.10;;
26478;SDS011;14163;-26.142;27.992;2024-01-07T04:47:44;11.93;;;9.03;;
26478;SDS011;14163;-26.142;27.992;2024-01-07T04:50:13;9.43;;;8.57;;
26478;SDS011;14163;-26.142;27.992;2024-01-07T04:52:47;6.50;;;6.00;;
26478;SDS011;14163;-26.142;27.992;2024-01-07T04:55:16;7.40;;;6.73;;
26478;SDS011;14163;-26.142;27.992;2024-01-07T04:57:45;5.27;;;4.80;;
26478;SDS011;14163;-26.142;27.992;2024-01-07T05:00:15;4.03;;;3.73;;
26478;SDS011;14163;-26.142;27.992;2024-01-07T05:02:44;3.77;;;3.50;;
26478;SDS011;14163;-26.142;27.992;2024-01-07T05:05:14;3.90;;;3.60;;
26478;SDS011;14163;-26.142;27.992;2024-01-07T05:07:43;4.53;;;4.13;;
26478;SDS011;14163;-26.142;27.992;2024-01-07T05:10:13;5.00;;;4.70;;
26478;SDS011;14163;-26.142;27.992;2024-01-07T05:12:43;8.57;;;7.53;;
26478;SDS011;14163;-26.142;27.992;2024-01-07T05:15:12;6.60;;;6.00;;
26478;SDS011;14163;-26.142;27.992;2024-01-07T05:17:41;6.43;;;5.97;;
26478;SDS011;14163;-26.142;27.992;2024-01-07T05:20:11;6.87;;;6.37;;
26478;SDS011;14163;-26.142;27.992;2024-01-07T05:22:42;6.57;;;6.07;;
26478;SDS011;14163;-26.142;27.992;2024-01-07T05:25:13;6.83;;;6.23;;
26478;SDS011;14163;-26.142;27.992;2024-01-07T05:27:44;8.00;;;7.23;;
26478;SDS011;14163;-26.142;27.992;2024-01-07T05:30:14;7.17;;;6.57;;
26478;SDS011;14163;-26.142;27.992;2024-01-07T05:32:43;7.67;;;7.07;;
26478;SDS011;14163;-26.142;27.992;2024-01-07T05:35:12;7.60;;;7.00;;
26478;SDS011;14163;-26.142;27.992;2024-01-07T05:37:41;9.00;;;8.07;;
26478;SDS011;14163;-26.142;27.992;2024-01-07T05:40:10;9.23;;;8.43;;
26478;SDS011;14163;-26.142;27.992;2024-01-07T05:42:42;13.97;;;9.50;;
26478;SDS011;14163;-26.142;27.992;2024-01-07T05:45:12;8.60;;;7.90;;
26478;SDS011;14163;-26.142;27.992;2024-01-07T05:47:43;9.30;;;8.50;;
26478;SDS011;14163;-26.142;27.992;2024-01-07T05:50:12;10.37;;;9.30;;
26478;SDS011;14163;-26.142;27.992;2024-01-07T05:52:44;10.63;;;9.63;;
26478;SDS011;14163;-26.142;27.992;2024-01-07T05:55:15;11.80;;;10.80;;
26478;SDS011;14163;-26.142;27.992;2024-01-07T05:57:45;12.13;;;10.40;;
26478;SDS011;14163;-26.142;27.992;2024-01-07T06:00:18;11.83;;;10.60;;
26478;SDS011;14163;-26.142;27.992;2024-01-07T06:05:32;11.83;;;10.70;;
26478;SDS011;14163;-26.142;27.992;2024-01-07T06:08:04;13.17;;;11.77;;
26478;SDS011;14163;-26.142;27.992;2024-01-07T06:10:41;12.27;;;11.07;;
26478;SDS011;14163;-26.142;27.992;2024-01-07T06:13:11;13.80;;;11.90;;
26478;SDS011;14163;-26.142;27.992;2024-01-07T06:15:43;12.37;;;11.20;;
26478;SDS011;14163;-26.142;27.992;2024-01-07T06:18:12;12.20;;;11.07;;
26478;SDS011;14163;-26.142;27.992;2024-01-07T06:20:48;11.50;;;10.50;;
26478;SDS011;14163;-26.142;27.992;2024-01-07T06:23:19;12.37;;;11.27;;
26478;SDS011;14163;-26.142;27.992;2024-01-07T06:25:51;11.60;;;10.70;;
26478;SDS011;14163;-26.142;27.992;2024-01-07T06:28:20;10.17;;;9.23;;
26478;SDS011;14163;-26.142;27.992;2024-01-07T06:30:51;11.53;;;10.50;;
26478;SDS011;14163;-26.142;27.992;2024-01-07T06:33:20;11.63;;;10.60;;
26478;SDS011;14163;-26.142;27.992;2024-01-07T06:35:50;10.10;;;9.30;;
26478;SDS011;14163;-26.142;27.992;2024-01-07T06:38:19;10.93;;;10.00;;
26478;SDS011;14163;-26.142;27.992;2024-01-07T06:40:51;10.73;;;9.83;;
26478;SDS011;14163;-26.142;27.992;2024-01-07T06:43:25;10.77;;;9.80;;
26478;SDS011;14163;-26.142;27.992;2024-01-07T06:45:54;10.70;;;9.80;;
26478;SDS011;14163;-26.142;27.992;2024-01-07T06:48:24;10.50;;;9.60;;
26478;SDS011;14163;-26.142;27.992;2024-01-07T06:50:53;9.93;;;9.07;;
26478;SDS011;14163;-26.142;27.992;2024-01-07T06:53:22;9.23;;;8.53;;
26478;SDS011;14163;-26.142;27.992;2024-01-07T06:55:54;9.90;;;9.10;;
26478;SDS011;14163;-26.142;27.992;2024-01-07T06:58:23;9.57;;;8.53;;
26478;SDS011;14163;-26.142;27.992;2024-01-07T07:00:52;8.70;;;8.00;;
26478;SDS011;14163;-26.142;27.992;2024-01-07T07:03:22;8.47;;;7.47;;
26478;SDS011;14163;-26.142;27.992;2024-01-07T07:05:51;8.40;;;7.60;;
26478;SDS011;14163;-26.142;27.992;2024-01-07T07:08:21;7.90;;;7.30;;
26478;SDS011;14163;-26.142;27.992;2024-01-07T07:10:50;7.70;;;7.20;;
26478;SDS011;14163;-26.142;27.992;2024-01-07T07:13:21;7.90;;;7.30;;
26478;SDS011;14163;-26.142;27.992;2024-01-07T07:15:50;7.80;;;7.20;;
26478;SDS011;14163;-26.142;27.992;2024-01-07T07:18:19;6.90;;;5.83;;
26478;SDS011;14163;-26.142;27.992;2024-01-07T07:20:50;7.47;;;6.87;;
26478;SDS011;14163;-26.142;27.992;2024-01-07T07:23:19;6.40;;;5.90;;
26478;SDS011;14163;-26.142;27.992;2024-01-07T07:25:48;7.40;;;4.47;;
26478;SDS011;14163;-26.142;27.992;2024-01-07T07:28:19;5.10;;;4.80;;
26478;SDS011;14163;-26.142;27.992;2024-01-07T07:30:48;3.73;;;2.77;;
26478;SDS011;14163;-26.142;27.992;2024-01-07T07:33:17;3.07;;;2.87;;
26478;SDS011;14163;-26.142;27.992;2024-01-07T07:35:46;3.00;;;2.73;;
26478;SDS011;14163;-26.142;27.992;2024-01-07T07:38:16;5.37;;;4.60;;
26478;SDS011;14163;-26.142;27.992;2024-01-07T07:40:45;7.20;;;5.30;;
26478;SDS011;14163;-26.142;27.992;2024-01-07T07:43:20;2.83;;;2.63;;
26478;SDS011;14163;-26.142;27.992;2024-01-07T07:45:49;3.50;;;3.30;;
26478;SDS011;14163;-26.142;27.992;2024-01-07T07:48:18;3.03;;;2.83;;
26478;SDS011;14163;-26.142;27.992;2024-01-07T07:50:48;3.20;;;2.70;;
26478;SDS011;14163;-26.142;27.992;2024-01-07T07:53:17;3.20;;;2.50;;
26478;SDS011;14163;-26.142;27.992;2024-01-07T07:55:46;2.43;;;2.33;;
26478;SDS011;14163;-26.142;27.992;2024-01-07T07:58:15;2.50;;;2.30;;
26478;SDS011;14163;-26.142;27.992;2024-01-07T08:00:49;2.80;;;2.70;;
26478;SDS011;14163;-26.142;27.992;2024-01-07T08:03:18;3.13;;;2.90;;
26478;SDS011;14163;-26.142;27.992;2024-01-07T08:05:47;2.57;;;2.47;;
26478;SDS011;14163;-26.142;27.992;2024-01-07T08:08:16;2.70;;;2.50;;
26478;SDS011;14163;-26.142;27.992;2024-01-07T08:10:46;3.20;;;2.70;;
26478;SDS011;14163;-26.142;27.992;2024-01-07T08:13:15;2.60;;;2.40;;
26478;SDS011;14163;-26.142;27.992;2024-01-07T08:15:44;3.10;;;2.90;;
26478;SDS011;14163;-26.142;27.992;2024-01-07T08:18:15;3.17;;;2.87;;
26478;SDS011;14163;-26.142;27.992;2024-01-07T08:20:45;3.67;;;2.50;;
26478;SDS011;14163;-26.142;27.992;2024-01-07T08:23:14;71.60;;;51.07;;
26478;SDS011;14163;-26.142;27.992;2024-01-07T08:25:43;30.60;;;23.90;;
26478;SDS011;14163;-26.142;27.992;2024-01-07T08:28:12;6.93;;;6.17;;
26478;SDS011;14163;-26.142;27.992;2024-01-07T08:30:41;3.57;;;3.27;;
26478;SDS011;14163;-26.142;27.992;2024-01-07T08:33:10;3.70;;;3.50;;
26478;SDS011;14163;-26.142;27.992;2024-01-07T08:35:41;3.40;;;3.20;;
26478;SDS011;14163;-26.142;27.992;2024-01-07T08:38:11;3.30;;;3.10;;
26478;SDS011;14163;-26.142;27.992;2024-01-07T08:40:40;4.07;;;3.40;;
26478;SDS011;14163;-26.142;27.992;2024-01-07T08:43:09;3.73;;;2.90;;
26478;SDS011;14163;-26.142;27.992;2024-01-07T08:45:38;3.23;;;3.00;;
26478;SDS011;14163;-26.142;27.992;2024-01-07T08:48:07;3.70;;;2.93;;
26478;SDS011;14163;-26.142;27.992;2024-01-07T08:50:38;3.90;;;2.70;;
26478;SDS011;14163;-26.142;27.992;2024-01-07T08:53:08;5.23;;;2.90;;
26478;SDS011;14163;-26.142;27.992;2024-01-07T08:55:38;4.53;;;2.80;;
26478;SDS011;14163;-26.142;27.992;2024-01-07T08:58:07;5.07;;;4.67;;
26478;SDS011;14163;-26.142;27.992;2024-01-07T09:00:36;7.47;;;6.13;;
26478;SDS011;14163;-26.142;27.992;2024-01-07T09:03:05;6.10;;;5.50;;
26478;SDS011;14163;-26.142;27.992;2024-01-07T09:05:34;6.00;;;5.43;;
26478;SDS011;14163;-26.142;27.992;2024-01-07T09:08:04;3.70;;;3.37;;
26478;SDS011;14163;-26.142;27.992;2024-01-07T09:10:35;5.50;;;3.30;;
26478;SDS011;14163;-26.142;27.992;2024-01-07T09:13:04;3.13;;;2.93;;
26478;SDS011;14163;-26.142;27.992;2024-01-07T09:15:34;2.80;;;2.60;;
26478;SDS011;14163;-26.142;27.992;2024-01-07T09:18:04;5.17;;;4.77;;
26478;SDS011;14163;-26.142;27.992;2024-01-07T09:20:34;3.97;;;3.57;;
26478;SDS011;14163;-26.142;27.992;2024-01-07T09:23:03;3.00;;;2.70;;
26478;SDS011;14163;-26.142;27.992;2024-01-07T09:25:32;3.47;;;3.27;;
26478;SDS011;14163;-26.142;27.992;2024-01-07T09:28:03;3.23;;;3.03;;
26478;SDS011;14163;-26.142;27.992;2024-01-07T09:30:32;3.50;;;3.20;;
26478;SDS011;14163;-26.142;27.992;2024-01-07T09:33:01;3.20;;;3.00;;
26478;SDS011;14163;-26.142;27.992;2024-01-07T09:35:31;4.03;;;2.83;;
26478;SDS011;14163;-26.142;27.992;2024-01-07T09:38:00;3.30;;;3.10;;
26478;SDS011;14163;-26.142;27.992;2024-01-07T09:40:29;3.23;;;2.90;;
26478;SDS011;14163;-26.142;27.992;2024-01-07T09:43:00;3.30;;;3.10;;
26478;SDS011;14163;-26.142;27.992;2024-01-07T09:45:29;3.00;;;2.70;;
26478;SDS011;14163;-26.142;27.992;2024-01-07T09:47:58;3.53;;;3.27;;
26478;SDS011;14163;-26.142;27.992;2024-01-07T09:50:27;3.70;;;2.73;;
26478;SDS011;14163;-26.142;27.992;2024-01-07T09:52:57;4.00;;;2.93;;
26478;SDS011;14163;-26.142;27.992;2024-01-07T09:55:31;3.60;;;3.30;;
26478;SDS011;14163;-26.142;27.992;2024-01-07T09:58:06;2.93;;;2.57;;
26478;SDS011;14163;-26.142;27.992;2024-01-07T10:00:35;3.13;;;2.93;;
26478;SDS011;14163;-26.142;27.992;2024-01-07T10:03:05;3.43;;;3.10;;
26478;SDS011;14163;-26.142;27.992;2024-01-07T10:05:34;3.60;;;3.30;;
26478;SDS011;14163;-26.142;27.992;2024-01-07T10:08:04;3.03;;;2.83;;
26478;SDS011;14163;-26.142;27.992;2024-01-07T10:10:35;3.03;;;2.83;;
26478;SDS011;14163;-26.142;27.992;2024-01-07T10:13:08;3.30;;;3.03;;
26478;SDS011;14163;-26.142;27.992;2024-01-07T10:15:37;3.17;;;2.87;;
26478;SDS011;14163;-26.142;27.992;2024-01-07T10:18:06;2.70;;;2.60;;
26478;SDS011;14163;-26.142;27.992;2024-01-07T10:20:36;5.10;;;3.10;;
26478;SDS011;14163;-26.142;27.992;2024-01-07T10:23:06;2.70;;;2.60;;
26478;SDS011;14163;-26.142;27.992;2024-01-07T10:25:35;3.03;;;2.80;;
26478;SDS011;14163;-26.142;27.992;2024-01-07T10:28:05;3.37;;;2.97;;
26478;SDS011;14163;-26.142;27.992;2024-01-07T10:30:38;4.57;;;3.23;;
26478;SDS011;14163;-26.142;27.992;2024-01-07T10:33:07;3.40;;;3.07;;
26478;SDS011;14163;-26.142;27.992;2024-01-07T10:35:37;4.00;;;3.70;;
26478;SDS011;14163;-26.142;27.992;2024-01-07T10:38:08;3.87;;;3.67;;
26478;SDS011;14163;-26.142;27.992;2024-01-07T10:40:37;3.67;;;3.35;;
26478;SDS011;14163;-26.142;27.992;2024-01-07T10:43:10;4.93;;;2.53;;
26478;SDS011;14163;-26.142;27.992;2024-01-07T10:45:40;3.47;;;3.27;;
26478;SDS011;14163;-26.142;27.992;2024-01-07T10:48:09;3.93;;;2.67;;
26478;SDS011;14163;-26.142;27.992;2024-01-07T10:50:39;2.93;;;2.83;;
26478;SDS011;14163;-26.142;27.992;2024-01-07T10:53:13;3.70;;;3.40;;
26478;SDS011;14163;-26.142;27.992;2024-01-07T10:55:59;2.77;;;2.67;;
26478;SDS011;14163;-26.142;27.992;2024-01-07T10:58:34;3.30;;;3.10;;
26478;SDS011;14163;-26.142;27.992;2024-01-07T11:01:04;3.33;;;3.07;;
26478;SDS011;14163;-26.142;27.992;2024-01-07T11:03:36;3.80;;;2.83;;
26478;SDS011;14163;-26.142;27.992;2024-01-07T11:06:14;2.57;;;2.47;;
26478;SDS011;14163;-26.142;27.992;2024-01-07T11:09:24;4.30;;;4.00;;
26478;SDS011;14163;-26.142;27.992;2024-01-07T11:11:59;3.03;;;2.90;;
26478;SDS011;14163;-26.142;27.992;2024-01-07T11:14:38;3.77;;;3.10;;
26478;SDS011;14163;-26.142;27.992;2024-01-07T11:17:10;3.03;;;2.93;;
26478;SDS011;14163;-26.142;27.992;2024-01-07T11:19:49;3.87;;;2.90;;
26478;SDS011;14163;-26.142;27.992;2024-01-07T11:22:21;3.17;;;2.97;;
26478;SDS011;14163;-26.142;27.992;2024-01-07T11:24:53;3.37;;;3.17;;
26478;SDS011;14163;-26.142;27.992;2024-01-07T11:27:23;3.77;;;3.47;;
26478;SDS011;14163;-26.142;27.992;2024-01-07T11:29:55;4.17;;;3.87;;
26478;SDS011;14163;-26.142;27.992;2024-01-07T11:32:25;26.40;;;23.60;;
26478;SDS011;14163;-26.142;27.992;2024-01-07T11:34:57;10.73;;;9.77;;
26478;SDS011;14163;-26.142;27.992;2024-01-07T11:37:26;5.03;;;4.33;;
26478;SDS011;14163;-26.142;27.992;2024-01-07T11:39:56;4.23;;;3.93;;
26478;SDS011;14163;-26.142;27.992;2024-01-07T11:42:25;3.83;;;3.70;;
26478;SDS011;14163;-26.142;27.992;2024-01-07T11:44:56;7.03;;;3.80;;
26478;SDS011;14163;-26.142;27.992;2024-01-07T11:47:25;4.53;;;4.20;;
26478;SDS011;14163;-26.142;27.992;2024-01-07T11:49:54;3.70;;;3.40;;
26478;SDS011;14163;-26.142;27.992;2024-01-07T11:52:24;3.87;;;3.57;;
26478;SDS011;14163;-26.142;27.992;2024-01-07T11:54:57;3.90;;;3.70;;
26478;SDS011;14163;-26.142;27.992;2024-01-07T11:57:26;5.13;;;4.73;;
26478;SDS011;14163;-26.142;27.992;2024-01-07T11:59:57;5.77;;;5.27;;
26478;SDS011;14163;-26.142;27.992;2024-01-07T12:02:30;5.77;;;4.80;;
26478;SDS011;14163;-26.142;27.992;2024-01-07T12:07:33;4.03;;;3.80;;
26478;SDS011;14163;-26.142;27.992;2024-01-07T12:10:06;3.93;;;3.73;;
26478;SDS011;14163;-26.142;27.992;2024-01-07T12:12:49;4.63;;;4.23;;
26478;SDS011;14163;-26.142;27.992;2024-01-07T12:15:24;5.53;;;5.00;;
26478;SDS011;14163;-26.142;27.992;2024-01-07T12:17:56;4.87;;;4.47;;
26478;SDS011;14163;-26.142;27.992;2024-01-07T12:20:27;5.03;;;4.57;;
26478;SDS011;14163;-26.142;27.992;2024-01-07T12:23:05;6.07;;;5.57;;
26478;SDS011;14163;-26.142;27.992;2024-01-07T12:25:35;6.23;;;5.83;;
26478;SDS011;14163;-26.142;27.992;2024-01-07T12:28:06;7.13;;;6.40;;
26478;SDS011;14163;-26.142;27.992;2024-01-07T12:30:37;6.00;;;5.50;;
26478;SDS011;14163;-26.142;27.992;2024-01-07T12:33:06;5.37;;;4.87;;
26478;SDS011;14163;-26.142;27.992;2024-01-07T12:35:36;5.63;;;5.13;;
26478;SDS011;14163;-26.142;27.992;2024-01-07T12:38:05;5.13;;;4.80;;
26478;SDS011;14163;-26.142;27.992;2024-01-07T12:40:34;5.70;;;5.20;;
26478;SDS011;14163;-26.142;27.992;2024-01-07T12:43:03;6.20;;;5.70;;
26478;SDS011;14163;-26.142;27.992;2024-01-07T12:45:32;5.20;;;4.80;;
26478;SDS011;14163;-26.142;27.992;2024-01-07T12:48:04;4.97;;;4.67;;
26478;SDS011;14163;-26.142;27.992;2024-01-07T12:50:33;4.50;;;4.20;;
26478;SDS011;14163;-26.142;27.992;2024-01-07T12:53:02;5.20;;;4.80;;
26478;SDS011;14163;-26.142;27.992;2024-01-07T12:55:32;5.03;;;4.63;;
26478;SDS011;14163;-26.142;27.992;2024-01-07T12:58:02;7.80;;;5.80;;
26478;SDS011;14163;-26.142;27.992;2024-01-07T13:00:31;5.73;;;5.30;;
26478;SDS011;14163;-26.142;27.992;2024-01-07T13:03:01;12.73;;;7.23;;
26478;SDS011;14163;-26.142;27.992;2024-01-07T13:05:33;11.10;;;7.60;;
26478;SDS011;14163;-26.142;27.992;2024-01-07T13:08:11;15.60;;;11.40;;
26478;SDS011;14163;-26.142;27.992;2024-01-07T13:10:41;43.53;;;33.67;;
26478;SDS011;14163;-26.142;27.992;2024-01-07T13:13:10;51.60;;;37.53;;
26478;SDS011;14163;-26.142;27.992;2024-01-07T13:15:39;94.40;;;68.43;;
26478;SDS011;14163;-26.142;27.992;2024-01-07T13:18:10;41.47;;;30.17;;
26478;SDS011;14163;-26.142;27.992;2024-01-07T13:20:39;14.60;;;11.00;;
26478;SDS011;14163;-26.142;27.992;2024-01-07T13:23:08;8.70;;;7.00;;
26478;SDS011;14163;-26.142;27.992;2024-01-07T13:25:37;10.93;;;7.47;;
26478;SDS011;14163;-26.142;27.992;2024-01-07T13:28:06;11.03;;;7.90;;
26478;SDS011;14163;-26.142;27.992;2024-01-07T13:30:37;12.27;;;7.63;;
26478;SDS011;14163;-26.142;27.992;2024-01-07T13:33:08;9.30;;;7.70;;
26478;SDS011;14163;-26.142;27.992;2024-01-07T13:35:38;9.50;;;6.90;;
26478;SDS011;14163;-26.142;27.992;2024-01-07T13:38:08;9.17;;;7.70;;
26478;SDS011;14163;-26.142;27.992;2024-01-07T13:40:37;7.67;;;6.80;;
26478;SDS011;14163;-26.142;27.992;2024-01-07T13:43:06;9.07;;;7.73;;
26478;SDS011;14163;-26.142;27.992;2024-01-07T13:45:36;12.10;;;8.00;;
26478;SDS011;14163;-26.142;27.992;2024-01-07T13:48:05;10.10;;;9.10;;
26478;SDS011;14163;-26.142;27.992;2024-01-07T13:50:36;11.50;;;8.37;;
26478;SDS011;14163;-26.142;27.992;2024-01-07T13:53:05;12.50;;;8.53;;
26478;SDS011;14163;-26.142;27.992;2024-01-07T13:55:34;8.93;;;8.23;;
26478;SDS011;14163;-26.142;27.992;2024-01-07T13:58:03;12.70;;;7.90;;
26478;SDS011;14163;-26.142;27.992;2024-01-07T14:00:32;8.33;;;7.53;;
26478;SDS011;14163;-26.142;27.992;2024-01-07T14:03:02;7.83;;;7.13;;
26478;SDS011;14163;-26.142;27.992;2024-01-07T14:05:31;6.70;;;6.10;;
26478;SDS011;14163;-26.142;27.992;2024-01-07T14:08:02;6.67;;;6.07;;
26478;SDS011;14163;-26.142;27.992;2024-01-07T14:10:32;5.70;;;5.40;;
26478;SDS011;14163;-26.142;27.992;2024-01-07T14:13:02;6.23;;;5.83;;
26478;SDS011;14163;-26.142;27.992;2024-01-07T14:15:32;7.30;;;6.83;;
26478;SDS011;14163;-26.142;27.992;2024-01-07T14:18:01;7.20;;;6.70;;
26478;SDS011;14163;-26.142;27.992;2024-01-07T14:20:31;7.17;;;6.67;;
26478;SDS011;14163;-26.142;27.992;2024-01-07T14:23:00;7.60;;;7.10;;
26478;SDS011;14163;-26.142;27.992;2024-01-07T14:25:33;7.00;;;6.50;;
26478;SDS011;14163;-26.142;27.992;2024-01-07T14:28:02;6.93;;;6.43;;
26478;SDS011;14163;-26.142;27.992;2024-01-07T14:30:32;7.20;;;6.60;;
26478;SDS011;14163;-26.142;27.992;2024-01-07T14:33:01;10.03;;;9.03;;